Aérodrome :
LOGIN :

S'inscrire | Disclaimer

   EN    FR    IT 

 










Légende :    VFR   VFR Marginal   IFR   IFR Intensif   IFR Très Intensif
Visi : 
Plafond : 
>= 8 km
>= 3000ft
5 à 8 km
1000 à 3000 ft
1500m à 5 km
500 à 1000 ft
800 à 1500m
200 à 500 ft
< 800m
< 200 ft
Symboles :   Orages  Brouillard  Fortes neiges  Fortes précipitations  Vent > 20 kt
SIGMETs :   Divers  Orages  Givrage  Turbulence  Onde Orograph.  Cendres Volcan.







- Altitude de l'aérodrome : 357 ft
- Code IATA : TUF
- Voir les cartes d'approche


LFOT - Tours

DERNIER METAR :
  • 231530Z AUTO 20007KT 9999 SCT008 BKN013 BKN027 13/11 Q1025 TEMPO 0800 FG VV///

METARs EXPIRÉS :
  • 231500Z AUTO 19006KT 9999 BKN009 BKN015 OVC040 13/12 Q1025 TEMPO 0800 FG VV///
  • 231430Z AUTO 20007KT 9999 BKN006 BKN017 OVC040 13/12 Q1025 TEMPO 0800 FG VV///
  • 231400Z AUTO 21006KT 9999 OVC005 12/11 Q1025 TEMPO 0800 FG VV///
  • 231330Z AUTO 21008KT 9999 OVC004 11/11 Q1025 TEMPO 0800 FG VV///
  • 231300Z AUTO 20007KT 9999 OVC004 11/10 Q1025 TEMPO 0800 FG VV///

TAF TAF LFOT
Valide du 23 à 12h jusqu'au 24 à 12h UTC


231100Z 2312/2412 20010KT 6000 BKN008
TEMPO 2312/2412 4000 -DZ BR BKN004
PROB40
TEMPO 2312/2412 2500 DZ BKN001
PROB30
TEMPO 2312/2412 0800 FG VV///
Pas de NOTAMs connus pour ce terrain.



MET'MAP, la Météo Aéronautique d'un coup d'oeil ! - Copyright ORBIFLY Décembre 2007 - Disclaimer

ORBIFLY MET'MAP TEAM :

Programmation & Développement : Alexandra Zaïnal
Conception & Développement : Baudouin d'Aumeries
Co-Programmation & Développement : Marc-Olivier Méhu
Soutien technique & logistique : Manuel Goepfert

Contact : metmap@orbifly.com




SOURCES & CREDITS :

   NOAA